sensor_id;sensor_type;location;lat;lon;timestamp;P1;durP1;ratioP1;P2;durP2;ratioP2
22711;SDS011;11523;50.390;8.072;2022-12-11T03:07:27;38.75;;;24.05;;
22711;SDS011;11523;50.390;8.072;2022-12-11T03:10:03;39.25;;;24.23;;
22711;SDS011;11523;50.390;8.072;2022-12-11T03:12:32;41.83;;;24.38;;
22711;SDS011;11523;50.390;8.072;2022-12-11T03:14:59;43.72;;;26.73;;
22711;SDS011;11523;50.390;8.072;2022-12-11T03:17:32;40.97;;;24.67;;
22711;SDS011;11523;50.390;8.072;2022-12-11T03:20:16;42.42;;;25.23;;
22711;SDS011;11523;50.390;8.072;2022-12-11T03:22:46;42.08;;;24.75;;
22711;SDS011;11523;50.390;8.072;2022-12-11T03:25:37;41.70;;;26.08;;
22711;SDS011;11523;50.390;8.072;2022-12-11T03:28:09;43.80;;;26.00;;
22711;SDS011;11523;50.390;8.072;2022-12-11T03:30:36;39.83;;;24.48;;
22711;SDS011;11523;50.390;8.072;2022-12-11T03:33:08;41.45;;;24.33;;
22711;SDS011;11523;50.390;8.072;2022-12-11T03:35:43;42.42;;;25.23;;
22711;SDS011;11523;50.390;8.072;2022-12-11T03:38:30;42.33;;;25.70;;
22711;SDS011;11523;50.390;8.072;2022-12-11T03:40:57;40.42;;;24.60;;
22711;SDS011;11523;50.390;8.072;2022-12-11T03:43:23;41.83;;;24.50;;
22711;SDS011;11523;50.390;8.072;2022-12-11T03:45:51;38.50;;;23.88;;
22711;SDS011;11523;50.390;8.072;2022-12-11T03:48:18;41.95;;;24.83;;
22711;SDS011;11523;50.390;8.072;2022-12-11T03:50:45;47.83;;;26.20;;
22711;SDS011;11523;50.390;8.072;2022-12-11T03:53:12;41.25;;;25.83;;
22711;SDS011;11523;50.390;8.072;2022-12-11T03:55:38;39.75;;;24.35;;
22711;SDS011;11523;50.390;8.072;2022-12-11T03:58:05;40.88;;;24.60;;
22711;SDS011;11523;50.390;8.072;2022-12-11T04:00:31;40.70;;;24.30;;
22711;SDS011;11523;50.390;8.072;2022-12-11T04:02:57;44.95;;;25.50;;
22711;SDS011;11523;50.390;8.072;2022-12-11T04:54:33;47.55;;;26.35;;
22711;SDS011;11523;50.390;8.072;2022-12-11T04:57:12;47.90;;;27.15;;
22711;SDS011;11523;50.390;8.072;2022-12-11T04:59:38;44.25;;;26.48;;
22711;SDS011;11523;50.390;8.072;2022-12-11T05:02:03;48.75;;;28.40;;
22711;SDS011;11523;50.390;8.072;2022-12-11T05:04:30;45.28;;;26.98;;
22711;SDS011;11523;50.390;8.072;2022-12-11T05:06:56;48.25;;;27.25;;
22711;SDS011;11523;50.390;8.072;2022-12-11T05:09:22;47.25;;;27.77;;
22711;SDS011;11523;50.390;8.072;2022-12-11T05:11:49;48.65;;;28.08;;
22711;SDS011;11523;50.390;8.072;2022-12-11T05:14:15;46.45;;;26.75;;
22711;SDS011;11523;50.390;8.072;2022-12-11T05:16:41;48.50;;;29.27;;
22711;SDS011;11523;50.390;8.072;2022-12-11T05:19:07;53.17;;;29.10;;
22711;SDS011;11523;50.390;8.072;2022-12-11T05:21:33;49.28;;;28.15;;
22711;SDS011;11523;50.390;8.072;2022-12-11T05:23:59;49.28;;;28.33;;
22711;SDS011;11523;50.390;8.072;2022-12-11T05:26:25;49.58;;;29.00;;
22711;SDS011;11523;50.390;8.072;2022-12-11T05:28:53;44.20;;;26.75;;
22711;SDS011;11523;50.390;8.072;2022-12-11T05:31:20;52.55;;;29.27;;
22711;SDS011;11523;50.390;8.072;2022-12-11T05:33:46;49.78;;;27.20;;
22711;SDS011;11523;50.390;8.072;2022-12-11T05:36:24;48.50;;;27.95;;
22711;SDS011;11523;50.390;8.072;2022-12-11T05:38:50;45.83;;;26.33;;
22711;SDS011;11523;50.390;8.072;2022-12-11T05:41:18;47.15;;;28.70;;
22711;SDS011;11523;50.390;8.072;2022-12-11T05:43:44;49.65;;;28.20;;
22711;SDS011;11523;50.390;8.072;2022-12-11T05:46:14;49.08;;;30.83;;
22711;SDS011;11523;50.390;8.072;2022-12-11T05:48:41;51.03;;;29.77;;
22711;SDS011;11523;50.390;8.072;2022-12-11T05:51:07;49.13;;;29.73;;
22711;SDS011;11523;50.390;8.072;2022-12-11T05:53:34;50.38;;;30.83;;
22711;SDS011;11523;50.390;8.072;2022-12-11T05:56:02;48.60;;;29.08;;
22711;SDS011;11523;50.390;8.072;2022-12-11T05:58:28;48.00;;;27.77;;
22711;SDS011;11523;50.390;8.072;2022-12-11T06:00:54;46.97;;;26.70;;
22711;SDS011;11523;50.390;8.072;2022-12-11T06:03:20;47.38;;;27.50;;
22711;SDS011;11523;50.390;8.072;2022-12-11T06:05:46;45.88;;;26.08;;
22711;SDS011;11523;50.390;8.072;2022-12-11T06:08:12;46.17;;;27.20;;
22711;SDS011;11523;50.390;8.072;2022-12-11T06:10:43;47.78;;;25.70;;
22711;SDS011;11523;50.390;8.072;2022-12-11T06:13:09;43.67;;;26.38;;
22711;SDS011;11523;50.390;8.072;2022-12-11T06:15:35;49.67;;;27.45;;
22711;SDS011;11523;50.390;8.072;2022-12-11T06:18:01;47.67;;;27.77;;
22711;SDS011;11523;50.390;8.072;2022-12-11T06:20:29;44.47;;;26.10;;
22711;SDS011;11523;50.390;8.072;2022-12-11T06:22:55;45.30;;;27.23;;
22711;SDS011;11523;50.390;8.072;2022-12-11T06:25:21;48.58;;;27.80;;
22711;SDS011;11523;50.390;8.072;2022-12-11T06:27:47;42.45;;;26.60;;
22711;SDS011;11523;50.390;8.072;2022-12-11T06:30:13;45.22;;;26.63;;
22711;SDS011;11523;50.390;8.072;2022-12-11T06:32:40;43.92;;;26.58;;
22711;SDS011;11523;50.390;8.072;2022-12-11T06:35:06;44.90;;;27.42;;
22711;SDS011;11523;50.390;8.072;2022-12-11T06:37:33;48.97;;;28.23;;
22711;SDS011;11523;50.390;8.072;2022-12-11T06:39:59;50.88;;;27.25;;
22711;SDS011;11523;50.390;8.072;2022-12-11T06:42:25;47.67;;;29.33;;
22711;SDS011;11523;50.390;8.072;2022-12-11T06:44:51;49.35;;;29.38;;
22711;SDS011;11523;50.390;8.072;2022-12-11T06:47:17;54.75;;;32.20;;
22711;SDS011;11523;50.390;8.072;2022-12-11T06:49:43;52.22;;;32.00;;
22711;SDS011;11523;50.390;8.072;2022-12-11T06:52:09;55.65;;;32.50;;
22711;SDS011;11523;50.390;8.072;2022-12-11T06:54:34;61.22;;;35.50;;
22711;SDS011;11523;50.390;8.072;2022-12-11T06:57:00;50.47;;;29.55;;
22711;SDS011;11523;50.390;8.072;2022-12-11T06:59:26;56.08;;;31.25;;
22711;SDS011;11523;50.390;8.072;2022-12-11T07:01:52;50.65;;;29.02;;
22711;SDS011;11523;50.390;8.072;2022-12-11T07:04:18;46.53;;;28.67;;
22711;SDS011;11523;50.390;8.072;2022-12-11T07:06:44;50.65;;;29.98;;
22711;SDS011;11523;50.390;8.072;2022-12-11T07:09:11;50.38;;;28.15;;
22711;SDS011;11523;50.390;8.072;2022-12-11T07:11:37;50.88;;;29.67;;
22711;SDS011;11523;50.390;8.072;2022-12-11T07:14:03;49.67;;;29.00;;
22711;SDS011;11523;50.390;8.072;2022-12-11T07:16:29;52.25;;;30.98;;
22711;SDS011;11523;50.390;8.072;2022-12-11T07:18:55;48.13;;;27.35;;
22711;SDS011;11523;50.390;8.072;2022-12-11T07:21:20;46.78;;;27.38;;
22711;SDS011;11523;50.390;8.072;2022-12-11T07:23:47;51.05;;;27.60;;
22711;SDS011;11523;50.390;8.072;2022-12-11T07:26:14;48.83;;;28.30;;
22711;SDS011;11523;50.390;8.072;2022-12-11T07:28:40;51.45;;;28.20;;
22711;SDS011;11523;50.390;8.072;2022-12-11T07:31:07;47.60;;;27.00;;
22711;SDS011;11523;50.390;8.072;2022-12-11T07:33:33;51.25;;;29.02;;
22711;SDS011;11523;50.390;8.072;2022-12-11T07:36:01;47.70;;;28.35;;
22711;SDS011;11523;50.390;8.072;2022-12-11T07:38:27;50.05;;;27.58;;
22711;SDS011;11523;50.390;8.072;2022-12-11T07:40:53;46.70;;;28.10;;
22711;SDS011;11523;50.390;8.072;2022-12-11T07:43:19;48.78;;;28.10;;
22711;SDS011;11523;50.390;8.072;2022-12-11T07:45:45;47.10;;;28.35;;
22711;SDS011;11523;50.390;8.072;2022-12-11T07:48:11;50.22;;;28.02;;
22711;SDS011;11523;50.390;8.072;2022-12-11T07:50:37;40.65;;;25.55;;
22711;SDS011;11523;50.390;8.072;2022-12-11T07:53:03;48.63;;;27.58;;
22711;SDS011;11523;50.390;8.072;2022-12-11T07:55:29;48.88;;;26.80;;
22711;SDS011;11523;50.390;8.072;2022-12-11T07:57:56;47.95;;;27.65;;
22711;SDS011;11523;50.390;8.072;2022-12-11T08:00:22;43.67;;;26.85;;
22711;SDS011;11523;50.390;8.072;2022-12-11T08:02:48;46.67;;;28.75;;
22711;SDS011;11523;50.390;8.072;2022-12-11T08:05:14;48.67;;;27.35;;
22711;SDS011;11523;50.390;8.072;2022-12-11T08:07:40;51.30;;;29.83;;
22711;SDS011;11523;50.390;8.072;2022-12-11T08:10:06;47.83;;;29.58;;
22711;SDS011;11523;50.390;8.072;2022-12-11T08:12:32;45.05;;;27.27;;
22711;SDS011;11523;50.390;8.072;2022-12-11T08:14:58;48.58;;;28.48;;
22711;SDS011;11523;50.390;8.072;2022-12-11T08:17:23;49.15;;;28.65;;
22711;SDS011;11523;50.390;8.072;2022-12-11T08:19:49;45.80;;;26.25;;
22711;SDS011;11523;50.390;8.072;2022-12-11T08:22:15;47.25;;;27.88;;
22711;SDS011;11523;50.390;8.072;2022-12-11T08:24:41;43.58;;;25.95;;
22711;SDS011;11523;50.390;8.072;2022-12-11T08:27:08;41.53;;;24.85;;
22711;SDS011;11523;50.390;8.072;2022-12-11T08:29:34;43.67;;;26.73;;
22711;SDS011;11523;50.390;8.072;2022-12-11T08:32:00;49.42;;;26.83;;
22711;SDS011;11523;50.390;8.072;2022-12-11T08:34:26;47.72;;;27.73;;
22711;SDS011;11523;50.390;8.072;2022-12-11T08:36:52;48.45;;;28.10;;
22711;SDS011;11523;50.390;8.072;2022-12-11T08:39:18;50.22;;;28.52;;
22711;SDS011;11523;50.390;8.072;2022-12-11T08:41:44;48.95;;;28.83;;
22711;SDS011;11523;50.390;8.072;2022-12-11T08:44:10;48.70;;;28.38;;
22711;SDS011;11523;50.390;8.072;2022-12-11T08:46:37;50.90;;;30.70;;
22711;SDS011;11523;50.390;8.072;2022-12-11T08:49:03;53.42;;;31.88;;
22711;SDS011;11523;50.390;8.072;2022-12-11T08:51:29;54.13;;;30.65;;
22711;SDS011;11523;50.390;8.072;2022-12-11T08:53:56;55.00;;;32.28;;
22711;SDS011;11523;50.390;8.072;2022-12-11T08:56:23;51.00;;;29.05;;
22711;SDS011;11523;50.390;8.072;2022-12-11T08:58:49;52.13;;;28.40;;
22711;SDS011;11523;50.390;8.072;2022-12-11T09:01:17;48.22;;;28.88;;
22711;SDS011;11523;50.390;8.072;2022-12-11T09:03:45;53.17;;;28.05;;
22711;SDS011;11523;50.390;8.072;2022-12-11T09:06:14;45.90;;;27.73;;
22711;SDS011;11523;50.390;8.072;2022-12-11T09:08:41;47.55;;;28.45;;
22711;SDS011;11523;50.390;8.072;2022-12-11T09:11:21;49.38;;;27.98;;
22711;SDS011;11523;50.390;8.072;2022-12-11T09:13:47;48.80;;;26.52;;
22711;SDS011;11523;50.390;8.072;2022-12-11T09:16:15;47.45;;;27.17;;
22711;SDS011;11523;50.390;8.072;2022-12-11T09:18:41;44.13;;;25.73;;
22711;SDS011;11523;50.390;8.072;2022-12-11T09:21:08;46.67;;;27.83;;
22711;SDS011;11523;50.390;8.072;2022-12-11T09:23:34;44.15;;;26.55;;
22711;SDS011;11523;50.390;8.072;2022-12-11T09:26:04;47.30;;;28.25;;
22711;SDS011;11523;50.390;8.072;2022-12-11T09:28:30;45.70;;;27.88;;
22711;SDS011;11523;50.390;8.072;2022-12-11T09:30:56;46.65;;;27.95;;
22711;SDS011;11523;50.390;8.072;2022-12-11T09:33:22;44.78;;;27.23;;
22711;SDS011;11523;50.390;8.072;2022-12-11T09:35:58;44.95;;;27.60;;
22711;SDS011;11523;50.390;8.072;2022-12-11T09:38:24;47.95;;;28.23;;
22711;SDS011;11523;50.390;8.072;2022-12-11T09:40:50;48.65;;;28.40;;
22711;SDS011;11523;50.390;8.072;2022-12-11T09:46:02;45.15;;;26.02;;
22711;SDS011;11523;50.390;8.072;2022-12-11T09:48:29;48.50;;;27.05;;
22711;SDS011;11523;50.390;8.072;2022-12-11T09:50:57;46.88;;;26.63;;
22711;SDS011;11523;50.390;8.072;2022-12-11T09:53:31;45.45;;;26.90;;
22711;SDS011;11523;50.390;8.072;2022-12-11T09:55:59;45.17;;;26.35;;
22711;SDS011;11523;50.390;8.072;2022-12-11T10:04:02;43.65;;;27.58;;
22711;SDS011;11523;50.390;8.072;2022-12-11T10:06:37;45.63;;;25.20;;
22711;SDS011;11523;50.390;8.072;2022-12-11T10:12:01;41.67;;;24.85;;
22711;SDS011;11523;50.390;8.072;2022-12-11T10:17:30;38.58;;;23.20;;
22711;SDS011;11523;50.390;8.072;2022-12-11T10:19:49;41.33;;;22.52;;
22711;SDS011;11523;50.390;8.072;2022-12-11T10:22:22;38.83;;;21.67;;
22711;SDS011;11523;50.390;8.072;2022-12-11T10:24:54;37.60;;;21.42;;
22711;SDS011;11523;50.390;8.072;2022-12-11T10:27:22;36.30;;;21.00;;
22711;SDS011;11523;50.390;8.072;2022-12-11T10:29:56;35.67;;;20.85;;
22711;SDS011;11523;50.390;8.072;2022-12-11T10:32:27;38.42;;;22.63;;
22711;SDS011;11523;50.390;8.072;2022-12-11T10:35:04;37.63;;;22.23;;
22711;SDS011;11523;50.390;8.072;2022-12-11T10:37:37;36.47;;;21.88;;
22711;SDS011;11523;50.390;8.072;2022-12-11T10:40:04;38.42;;;23.45;;
22711;SDS011;11523;50.390;8.072;2022-12-11T10:42:30;41.22;;;24.33;;
22711;SDS011;11523;50.390;8.072;2022-12-11T10:45:04;40.17;;;21.52;;
22711;SDS011;11523;50.390;8.072;2022-12-11T10:47:30;43.40;;;25.52;;
22711;SDS011;11523;50.390;8.072;2022-12-11T10:49:59;47.85;;;26.30;;
22711;SDS011;11523;50.390;8.072;2022-12-11T10:54:59;46.75;;;25.38;;
22711;SDS011;11523;50.390;8.072;2022-12-11T10:57:35;46.35;;;26.85;;
22711;SDS011;11523;50.390;8.072;2022-12-11T11:00:03;45.35;;;26.20;;
22711;SDS011;11523;50.390;8.072;2022-12-11T11:02:31;43.55;;;26.10;;
22711;SDS011;11523;50.390;8.072;2022-12-11T11:04:58;43.33;;;25.20;;
22711;SDS011;11523;50.390;8.072;2022-12-11T11:07:26;47.22;;;27.42;;
22711;SDS011;11523;50.390;8.072;2022-12-11T11:12:41;44.58;;;23.77;;
22711;SDS011;11523;50.390;8.072;2022-12-11T11:15:12;42.78;;;23.77;;
22711;SDS011;11523;50.390;8.072;2022-12-11T11:17:59;45.38;;;24.48;;
22711;SDS011;11523;50.390;8.072;2022-12-11T11:20:26;46.63;;;27.52;;
22711;SDS011;11523;50.390;8.072;2022-12-11T11:23:03;55.20;;;32.60;;
22711;SDS011;11523;50.390;8.072;2022-12-11T11:25:30;65.80;;;34.75;;
22711;SDS011;11523;50.390;8.072;2022-12-11T11:27:59;68.47;;;36.85;;
22711;SDS011;11523;50.390;8.072;2022-12-11T11:30:29;47.90;;;26.98;;
22711;SDS011;11523;50.390;8.072;2022-12-11T11:32:57;43.83;;;25.40;;
22711;SDS011;11523;50.390;8.072;2022-12-11T11:35:28;65.15;;;33.58;;
22711;SDS011;11523;50.390;8.072;2022-12-11T11:38:15;50.22;;;27.75;;
22711;SDS011;11523;50.390;8.072;2022-12-11T11:40:47;49.67;;;27.55;;
22711;SDS011;11523;50.390;8.072;2022-12-11T11:46:02;41.75;;;23.80;;
22711;SDS011;11523;50.390;8.072;2022-12-11T11:50:58;72.50;;;34.40;;
22711;SDS011;11523;50.390;8.072;2022-12-11T11:53:32;60.42;;;35.67;;
22711;SDS011;11523;50.390;8.072;2022-12-11T11:58:32;48.22;;;27.40;;
22711;SDS011;11523;50.390;8.072;2022-12-11T12:01:01;55.75;;;30.23;;
22711;SDS011;11523;50.390;8.072;2022-12-11T12:03:27;41.85;;;24.48;;
22711;SDS011;11523;50.390;8.072;2022-12-11T12:06:09;44.40;;;25.05;;
22711;SDS011;11523;50.390;8.072;2022-12-11T12:08:41;45.05;;;24.70;;
22711;SDS011;11523;50.390;8.072;2022-12-11T12:11:15;41.70;;;23.88;;
22711;SDS011;11523;50.390;8.072;2022-12-11T12:13:46;42.35;;;24.48;;
22711;SDS011;11523;50.390;8.072;2022-12-11T12:16:18;38.20;;;22.23;;
22711;SDS011;11523;50.390;8.072;2022-12-11T12:18:57;41.00;;;23.35;;
22711;SDS011;11523;50.390;8.072;2022-12-11T12:21:29;41.42;;;23.77;;
22711;SDS011;11523;50.390;8.072;2022-12-11T12:24:02;40.50;;;23.25;;
22711;SDS011;11523;50.390;8.072;2022-12-11T12:26:37;41.70;;;22.83;;
22711;SDS011;11523;50.390;8.072;2022-12-11T12:31:41;40.88;;;23.42;;
22711;SDS011;11523;50.390;8.072;2022-12-11T12:41:49;43.47;;;24.00;;
22711;SDS011;11523;50.390;8.072;2022-12-11T12:44:17;40.83;;;24.90;;
22711;SDS011;11523;50.390;8.072;2022-12-11T12:49:31;43.85;;;24.48;;
22711;SDS011;11523;50.390;8.072;2022-12-11T12:51:59;45.47;;;24.90;;
22711;SDS011;11523;50.390;8.072;2022-12-11T12:54:25;38.53;;;21.48;;
22711;SDS011;11523;50.390;8.072;2022-12-11T12:56:51;42.83;;;23.95;;
22711;SDS011;11523;50.390;8.072;2022-12-11T12:59:24;35.67;;;21.50;;
22711;SDS011;11523;50.390;8.072;2022-12-11T13:01:55;39.83;;;22.23;;
22711;SDS011;11523;50.390;8.072;2022-12-11T13:04:37;37.20;;;22.05;;
22711;SDS011;11523;50.390;8.072;2022-12-11T13:07:11;38.45;;;21.80;;
22711;SDS011;11523;50.390;8.072;2022-12-11T13:09:38;39.83;;;21.33;;
22711;SDS011;11523;50.390;8.072;2022-12-11T13:12:10;35.70;;;20.40;;
22711;SDS011;11523;50.390;8.072;2022-12-11T13:14:36;37.15;;;22.35;;
22711;SDS011;11523;50.390;8.072;2022-12-11T13:17:04;40.38;;;21.60;;
22711;SDS011;11523;50.390;8.072;2022-12-11T13:19:32;37.70;;;22.23;;
22711;SDS011;11523;50.390;8.072;2022-12-11T13:29:49;40.33;;;23.15;;
22711;SDS011;11523;50.390;8.072;2022-12-11T13:34:43;34.45;;;19.45;;
22711;SDS011;11523;50.390;8.072;2022-12-11T13:37:43;39.03;;;21.92;;
22711;SDS011;11523;50.390;8.072;2022-12-11T13:40:03;38.90;;;20.52;;
22711;SDS011;11523;50.390;8.072;2022-12-11T13:42:31;33.42;;;20.65;;
22711;SDS011;11523;50.390;8.072;2022-12-11T13:44:58;37.83;;;21.83;;
22711;SDS011;11523;50.390;8.072;2022-12-11T13:47:24;36.03;;;20.65;;
22711;SDS011;11523;50.390;8.072;2022-12-11T13:49:54;35.97;;;21.55;;
22711;SDS011;11523;50.390;8.072;2022-12-11T13:54:52;36.95;;;21.48;;
22711;SDS011;11523;50.390;8.072;2022-12-11T13:57:23;35.35;;;20.73;;
22711;SDS011;11523;50.390;8.072;2022-12-11T13:59:50;37.70;;;20.70;;
22711;SDS011;11523;50.390;8.072;2022-12-11T14:02:21;37.72;;;22.05;;
22711;SDS011;11523;50.390;8.072;2022-12-11T14:04:50;35.00;;;20.80;;
22711;SDS011;11523;50.390;8.072;2022-12-11T14:07:19;37.08;;;21.58;;
22711;SDS011;11523;50.390;8.072;2022-12-11T14:09:47;38.20;;;22.23;;
22711;SDS011;11523;50.390;8.072;2022-12-11T14:12:14;38.35;;;21.25;;
22711;SDS011;11523;50.390;8.072;2022-12-11T14:14:42;30.20;;;18.63;;
22711;SDS011;11523;50.390;8.072;2022-12-11T14:17:13;34.83;;;20.30;;
22711;SDS011;11523;50.390;8.072;2022-12-11T14:19:44;39.45;;;23.50;;
22711;SDS011;11523;50.390;8.072;2022-12-11T14:22:27;34.05;;;21.08;;
22711;SDS011;11523;50.390;8.072;2022-12-11T14:24:54;40.03;;;22.42;;
22711;SDS011;11523;50.390;8.072;2022-12-11T14:27:20;37.70;;;22.30;;
22711;SDS011;11523;50.390;8.072;2022-12-11T14:29:47;36.13;;;20.98;;
22711;SDS011;11523;50.390;8.072;2022-12-11T14:32:17;37.75;;;21.05;;
22711;SDS011;11523;50.390;8.072;2022-12-11T14:34:44;38.60;;;21.45;;
22711;SDS011;11523;50.390;8.072;2022-12-11T14:37:13;38.95;;;21.20;;
22711;SDS011;11523;50.390;8.072;2022-12-11T14:39:43;36.53;;;18.98;;
22711;SDS011;11523;50.390;8.072;2022-12-11T14:42:11;36.15;;;19.63;;
22711;SDS011;11523;50.390;8.072;2022-12-11T14:44:45;37.40;;;19.67;;
22711;SDS011;11523;50.390;8.072;2022-12-11T14:47:14;36.08;;;19.55;;
22711;SDS011;11523;50.390;8.072;2022-12-11T14:52:12;39.97;;;21.63;;
22711;SDS011;11523;50.390;8.072;2022-12-11T14:54:40;44.80;;;24.83;;
22711;SDS011;11523;50.390;8.072;2022-12-11T14:57:07;48.03;;;27.80;;
22711;SDS011;11523;50.390;8.072;2022-12-11T14:59:37;40.63;;;23.38;;
22711;SDS011;11523;50.390;8.072;2022-12-11T15:02:20;41.67;;;24.08;;
22711;SDS011;11523;50.390;8.072;2022-12-11T15:04:56;39.10;;;22.17;;
22711;SDS011;11523;50.390;8.072;2022-12-11T15:07:23;36.28;;;20.27;;
22711;SDS011;11523;50.390;8.072;2022-12-11T15:09:49;35.45;;;19.80;;
22711;SDS011;11523;50.390;8.072;2022-12-11T15:12:17;36.65;;;20.67;;
22711;SDS011;11523;50.390;8.072;2022-12-11T15:14:47;38.75;;;21.63;;
22711;SDS011;11523;50.390;8.072;2022-12-11T15:17:14;32.67;;;19.02;;
22711;SDS011;11523;50.390;8.072;2022-12-11T15:19:40;35.08;;;21.52;;
22711;SDS011;11523;50.390;8.072;2022-12-11T15:22:11;36.88;;;20.33;;
22711;SDS011;11523;50.390;8.072;2022-12-11T15:24:40;34.83;;;20.23;;
22711;SDS011;11523;50.390;8.072;2022-12-11T15:32:44;41.08;;;22.80;;
22711;SDS011;11523;50.390;8.072;2022-12-11T15:35:22;90.13;;;47.65;;
22711;SDS011;11523;50.390;8.072;2022-12-11T15:37:52;45.60;;;26.05;;
22711;SDS011;11523;50.390;8.072;2022-12-11T15:40:18;37.15;;;22.30;;
22711;SDS011;11523;50.390;8.072;2022-12-11T15:42:44;39.00;;;22.48;;
22711;SDS011;11523;50.390;8.072;2022-12-11T15:45:14;34.67;;;20.35;;
22711;SDS011;11523;50.390;8.072;2022-12-11T15:47:41;36.97;;;20.92;;
22711;SDS011;11523;50.390;8.072;2022-12-11T15:50:20;40.95;;;22.27;;
22711;SDS011;11523;50.390;8.072;2022-12-11T15:52:46;42.00;;;23.25;;
22711;SDS011;11523;50.390;8.072;2022-12-11T15:55:13;35.58;;;21.25;;
22711;SDS011;11523;50.390;8.072;2022-12-11T15:57:42;33.47;;;19.38;;
22711;SDS011;11523;50.390;8.072;2022-12-11T16:00:12;35.63;;;21.20;;
22711;SDS011;11523;50.390;8.072;2022-12-11T16:02:38;35.42;;;20.75;;
22711;SDS011;11523;50.390;8.072;2022-12-11T16:05:04;39.35;;;22.05;;
22711;SDS011;11523;50.390;8.072;2022-12-11T16:07:30;34.95;;;20.42;;
22711;SDS011;11523;50.390;8.072;2022-12-11T16:09:56;36.70;;;21.38;;
22711;SDS011;11523;50.390;8.072;2022-12-11T16:12:22;39.38;;;21.88;;
22711;SDS011;11523;50.390;8.072;2022-12-11T16:14:48;41.85;;;23.92;;
22711;SDS011;11523;50.390;8.072;2022-12-11T16:17:14;39.25;;;22.98;;
22711;SDS011;11523;50.390;8.072;2022-12-11T16:19:41;39.35;;;22.17;;
22711;SDS011;11523;50.390;8.072;2022-12-11T16:22:07;35.83;;;21.65;;
22711;SDS011;11523;50.390;8.072;2022-12-11T16:24:33;42.45;;;25.35;;
22711;SDS011;11523;50.390;8.072;2022-12-11T16:26:59;42.30;;;24.15;;
22711;SDS011;11523;50.390;8.072;2022-12-11T16:29:25;40.38;;;22.73;;
22711;SDS011;11523;50.390;8.072;2022-12-11T16:31:51;39.80;;;23.40;;
22711;SDS011;11523;50.390;8.072;2022-12-11T16:34:17;37.20;;;22.38;;
22711;SDS011;11523;50.390;8.072;2022-12-11T16:36:43;42.10;;;23.35;;
22711;SDS011;11523;50.390;8.072;2022-12-11T16:39:16;38.03;;;22.42;;
22711;SDS011;11523;50.390;8.072;2022-12-11T16:41:41;38.85;;;22.05;;
22711;SDS011;11523;50.390;8.072;2022-12-11T16:44:07;36.45;;;21.40;;
22711;SDS011;11523;50.390;8.072;2022-12-11T16:46:34;38.15;;;23.33;;
22711;SDS011;11523;50.390;8.072;2022-12-11T16:49:00;41.50;;;22.52;;
22711;SDS011;11523;50.390;8.072;2022-12-11T16:51:26;40.05;;;22.08;;
22711;SDS011;11523;50.390;8.072;2022-12-11T16:53:59;41.38;;;23.23;;
22711;SDS011;11523;50.390;8.072;2022-12-11T16:56:24;37.92;;;21.65;;
22711;SDS011;11523;50.390;8.072;2022-12-11T16:58:50;42.40;;;23.52;;
22711;SDS011;11523;50.390;8.072;2022-12-11T17:01:16;40.63;;;24.58;;
22711;SDS011;11523;50.390;8.072;2022-12-11T17:03:42;42.33;;;23.50;;
22711;SDS011;11523;50.390;8.072;2022-12-11T17:06:09;43.25;;;23.80;;
22711;SDS011;11523;50.390;8.072;2022-12-11T17:08:36;45.63;;;25.60;;
22711;SDS011;11523;50.390;8.072;2022-12-11T17:11:05;41.15;;;23.13;;
22711;SDS011;11523;50.390;8.072;2022-12-11T17:13:31;49.45;;;25.85;;
22711;SDS011;11523;50.390;8.072;2022-12-11T17:15:57;77.40;;;38.13;;
22711;SDS011;11523;50.390;8.072;2022-12-11T17:18:23;60.38;;;30.85;;
22711;SDS011;11523;50.390;8.072;2022-12-11T17:20:49;49.22;;;26.67;;
22711;SDS011;11523;50.390;8.072;2022-12-11T17:23:15;44.40;;;25.15;;
22711;SDS011;11523;50.390;8.072;2022-12-11T17:25:42;52.45;;;31.65;;
22711;SDS011;11523;50.390;8.072;2022-12-11T17:28:08;55.45;;;31.92;;
22711;SDS011;11523;50.390;8.072;2022-12-11T17:30:38;57.90;;;33.45;;
22711;SDS011;11523;50.390;8.072;2022-12-11T17:33:05;48.25;;;27.27;;
22711;SDS011;11523;50.390;8.072;2022-12-11T17:35:31;43.40;;;24.13;;
22711;SDS011;11523;50.390;8.072;2022-12-11T17:37:57;42.75;;;23.65;;
22711;SDS011;11523;50.390;8.072;2022-12-11T17:40:23;41.95;;;23.63;;
22711;SDS011;11523;50.390;8.072;2022-12-11T17:42:49;40.05;;;22.60;;
22711;SDS011;11523;50.390;8.072;2022-12-11T17:45:15;39.00;;;22.80;;
22711;SDS011;11523;50.390;8.072;2022-12-11T17:47:41;45.00;;;25.00;;
22711;SDS011;11523;50.390;8.072;2022-12-11T17:50:07;44.25;;;24.30;;
22711;SDS011;11523;50.390;8.072;2022-12-11T17:52:33;46.40;;;26.45;;
22711;SDS011;11523;50.390;8.072;2022-12-11T17:55:01;43.78;;;26.10;;
22711;SDS011;11523;50.390;8.072;2022-12-11T17:57:27;46.65;;;26.65;;
22711;SDS011;11523;50.390;8.072;2022-12-11T17:59:53;48.60;;;26.85;;
22711;SDS011;11523;50.390;8.072;2022-12-11T18:02:19;51.00;;;27.60;;
22711;SDS011;11523;50.390;8.072;2022-12-11T18:04:45;46.45;;;26.45;;
22711;SDS011;11523;50.390;8.072;2022-12-11T18:07:11;45.63;;;25.98;;
22711;SDS011;11523;50.390;8.072;2022-12-11T18:09:40;51.70;;;28.42;;
22711;SDS011;11523;50.390;8.072;2022-12-11T18:12:07;48.20;;;27.65;;
22711;SDS011;11523;50.390;8.072;2022-12-11T18:14:33;49.92;;;26.35;;
22711;SDS011;11523;50.390;8.072;2022-12-11T18:16:59;46.25;;;27.13;;
22711;SDS011;11523;50.390;8.072;2022-12-11T18:19:25;51.38;;;28.67;;
22711;SDS011;11523;50.390;8.072;2022-12-11T18:21:52;51.13;;;28.50;;
22711;SDS011;11523;50.390;8.072;2022-12-11T18:24:18;50.13;;;27.75;;
22711;SDS011;11523;50.390;8.072;2022-12-11T18:26:44;59.13;;;32.88;;
22711;SDS011;11523;50.390;8.072;2022-12-11T18:29:10;66.95;;;39.15;;
22711;SDS011;11523;50.390;8.072;2022-12-11T18:31:36;58.85;;;34.22;;
22711;SDS011;11523;50.390;8.072;2022-12-11T18:34:02;53.38;;;31.38;;
22711;SDS011;11523;50.390;8.072;2022-12-11T18:36:30;57.08;;;32.28;;
22711;SDS011;11523;50.390;8.072;2022-12-11T18:38:56;54.55;;;31.27;;
22711;SDS011;11523;50.390;8.072;2022-12-11T18:41:22;51.25;;;29.50;;
22711;SDS011;11523;50.390;8.072;2022-12-11T18:43:48;46.30;;;26.05;;
22711;SDS011;11523;50.390;8.072;2022-12-11T18:46:15;44.47;;;26.77;;
22711;SDS011;11523;50.390;8.072;2022-12-11T18:48:42;43.08;;;26.38;;
22711;SDS011;11523;50.390;8.072;2022-12-11T18:51:09;45.92;;;26.73;;
22711;SDS011;11523;50.390;8.072;2022-12-11T18:53:36;49.97;;;29.65;;
22711;SDS011;11523;50.390;8.072;2022-12-11T18:56:07;44.33;;;26.30;;
22711;SDS011;11523;50.390;8.072;2022-12-11T18:58:33;47.50;;;27.92;;
22711;SDS011;11523;50.390;8.072;2022-12-11T19:01:06;44.97;;;27.23;;
22711;SDS011;11523;50.390;8.072;2022-12-11T19:03:33;44.95;;;26.30;;
22711;SDS011;11523;50.390;8.072;2022-12-11T19:06:06;45.28;;;26.15;;
22711;SDS011;11523;50.390;8.072;2022-12-11T19:08:32;32.25;;;19.27;;
22711;SDS011;11523;50.390;8.072;2022-12-11T19:10:58;43.42;;;24.70;;
22711;SDS011;11523;50.390;8.072;2022-12-11T19:13:24;52.60;;;25.85;;
22711;SDS011;11523;50.390;8.072;2022-12-11T19:15:50;44.85;;;25.35;;
22711;SDS011;11523;50.390;8.072;2022-12-11T19:18:16;46.40;;;25.20;;
22711;SDS011;11523;50.390;8.072;2022-12-11T19:20:42;46.15;;;27.33;;
22711;SDS011;11523;50.390;8.072;2022-12-11T19:23:08;45.35;;;25.55;;